createdAt,value
2023-01-11T00:00:39.222Z,57.83
2023-01-11T00:03:11.052Z,57.95
2023-01-11T00:05:43.590Z,58.23
2023-01-11T00:08:15.208Z,58.00
2023-01-11T00:10:46.923Z,58.01
2023-01-11T00:13:18.540Z,58.02
2023-01-11T00:15:50.274Z,58.21
2023-01-11T00:18:22.033Z,58.26
2023-01-11T00:20:53.611Z,58.31
2023-01-11T00:23:25.130Z,58.46
2023-01-11T00:25:56.691Z,58.22
2023-01-11T00:28:28.442Z,58.38
2023-01-11T00:31:00.225Z,58.59
2023-01-11T00:33:32.062Z,58.62
2023-01-11T00:36:03.610Z,58.55
2023-01-11T00:38:54.236Z,58.56
2023-01-11T00:41:43.585Z,58.80
2023-01-11T00:44:33.571Z,58.76
2023-01-11T00:47:22.748Z,58.62
2023-01-11T00:49:54.374Z,58.87
2023-01-11T00:52:25.983Z,58.93
2023-01-11T00:54:57.689Z,58.93
2023-01-11T00:57:29.670Z,58.91
2023-01-11T01:00:02.157Z,59.17
2023-01-11T01:02:34.880Z,59.30
2023-01-11T01:05:07.183Z,59.22
2023-01-11T01:07:39.183Z,59.17
2023-01-11T01:10:12.753Z,59.16
2023-01-11T01:13:02.036Z,59.42
2023-01-11T01:15:34.091Z,59.54
2023-01-11T01:18:05.647Z,59.42
2023-01-11T01:20:37.501Z,59.51
2023-01-11T01:23:09.084Z,59.68
2023-01-11T01:25:41.269Z,59.71
2023-01-11T01:28:13.018Z,59.72
2023-01-11T01:30:44.664Z,59.96
2023-01-11T01:33:16.516Z,60.15
2023-01-11T01:35:48.391Z,59.99
2023-01-11T01:38:20.083Z,60.14
2023-01-11T01:40:52.401Z,60.37
2023-01-11T01:43:24.208Z,60.38
2023-01-11T01:45:56.528Z,60.50
2023-01-11T01:48:28.608Z,60.44
2023-01-11T01:51:01.222Z,60.77
2023-01-11T01:53:35.981Z,60.94
2023-01-11T01:56:09.981Z,61.05
2023-01-11T01:58:43.384Z,60.96
2023-01-11T02:01:33.527Z,61.13
2023-01-11T02:04:05.648Z,61.06
2023-01-11T02:06:37.427Z,61.16
2023-01-11T02:09:13.323Z,61.16
2023-01-11T02:11:45.258Z,61.33
2023-01-11T02:14:18.319Z,61.47
2023-01-11T02:16:49.970Z,61.57
2023-01-11T02:19:27.288Z,61.59
2023-01-11T02:22:14.982Z,61.72
2023-01-11T02:24:57.508Z,61.78
2023-01-11T02:27:48.881Z,62.03
2023-01-11T02:30:24.378Z,62.27
2023-01-11T02:32:58.984Z,62.12
2023-01-11T02:35:36.556Z,62.19
2023-01-11T02:38:11.623Z,62.15
2023-01-11T02:40:49.269Z,62.37
2023-01-11T02:43:39.491Z,62.65
2023-01-11T02:46:13.431Z,62.53
2023-01-11T02:48:47.688Z,62.48
2023-01-11T02:51:21.358Z,62.30
2023-01-11T02:53:55.073Z,62.34
2023-01-11T02:56:29.031Z,62.35
2023-01-11T02:59:01.208Z,62.58
2023-01-11T03:01:32.898Z,62.64
2023-01-11T03:04:04.628Z,62.58
2023-01-11T03:06:36.258Z,62.72
2023-01-11T03:09:27.067Z,63.19
2023-01-11T03:12:26.169Z,63.32
2023-01-11T03:15:10.719Z,63.63
2023-01-11T03:17:50.873Z,63.85
2023-01-11T03:20:25.341Z,63.81
2023-01-11T03:23:06.064Z,63.85
2023-01-11T03:25:42.281Z,63.70
2023-01-11T03:28:17.969Z,63.78
2023-01-11T03:30:55.255Z,63.74
2023-01-11T03:33:31.626Z,63.68
2023-01-11T03:36:05.686Z,63.62
2023-01-11T03:38:39.172Z,63.58
2023-01-11T03:41:11.477Z,63.52
2023-01-11T03:43:44.145Z,63.44
2023-01-11T03:46:16.284Z,63.52
2023-01-11T03:48:48.792Z,63.33
2023-01-11T03:51:21.515Z,63.31
2023-01-11T03:53:53.369Z,63.38
2023-01-11T03:56:26.561Z,63.39
2023-01-11T03:58:58.711Z,63.40
2023-01-11T04:01:30.586Z,63.49
2023-01-11T04:04:02.286Z,63.37
2023-01-11T04:06:34.130Z,63.40
2023-01-11T04:09:06.176Z,63.71
2023-01-11T04:11:37.800Z,63.68
2023-01-11T04:14:09.709Z,63.74
2023-01-11T04:16:41.560Z,64.03
2023-01-11T04:19:13.364Z,64.21
2023-01-11T04:21:45.254Z,64.19
2023-01-11T04:24:18.663Z,64.26
2023-01-11T04:26:50.300Z,64.20
2023-01-11T04:29:22.052Z,64.36
2023-01-11T04:31:53.706Z,64.36
2023-01-11T04:34:25.102Z,64.51
2023-01-11T04:36:56.777Z,64.52
2023-01-11T04:39:28.465Z,64.58
2023-01-11T04:42:26.061Z,64.68
2023-01-11T04:44:57.720Z,64.79
2023-01-11T04:47:29.465Z,64.71
2023-01-11T04:50:01.686Z,64.73
2023-01-11T04:52:33.240Z,64.80
2023-01-11T04:55:05.170Z,65.17
2023-01-11T04:57:36.949Z,65.09
2023-01-11T05:00:11.503Z,65.21
2023-01-11T05:02:43.254Z,65.16
2023-01-11T05:05:14.721Z,65.30
2023-01-11T05:07:46.684Z,65.52
2023-01-11T05:10:21.018Z,65.22
2023-01-11T05:12:52.993Z,65.31
2023-01-11T05:15:24.708Z,65.37
2023-01-11T05:17:56.282Z,65.41
2023-01-11T05:20:28.329Z,65.45
2023-01-11T05:23:00.185Z,65.44
2023-01-11T05:25:32.040Z,65.50
2023-01-11T05:28:04.337Z,65.40
2023-01-11T05:30:35.866Z,65.50
2023-01-11T05:33:07.763Z,65.49
2023-01-11T05:35:39.580Z,65.69
2023-01-11T05:38:11.234Z,65.68
2023-01-11T05:40:43.147Z,65.80
2023-01-11T05:43:15.075Z,66.06
2023-01-11T05:45:47.041Z,65.74
2023-01-11T05:48:18.857Z,65.74
2023-01-11T05:50:54.561Z,65.92
2023-01-11T05:53:26.606Z,66.00
2023-01-11T05:55:58.500Z,66.06
2023-01-11T05:58:30.207Z,65.72
2023-01-11T06:01:02.057Z,65.93
2023-01-11T06:03:33.927Z,65.64
2023-01-11T06:06:05.677Z,65.67
2023-01-11T06:08:37.254Z,65.55
2023-01-11T06:11:08.778Z,65.65
2023-01-11T06:13:40.423Z,65.54
2023-01-11T06:16:14.011Z,65.35
2023-01-11T06:18:46.590Z,65.23
2023-01-11T06:21:18.482Z,65.15
2023-01-11T06:23:51.801Z,64.96
2023-01-11T06:26:24.175Z,64.87
2023-01-11T06:28:55.813Z,64.86
2023-01-11T06:31:27.632Z,65.00
2023-01-11T06:33:59.127Z,65.17
2023-01-11T06:36:30.694Z,64.85
2023-01-11T06:39:02.236Z,64.97
2023-01-11T06:41:34.251Z,65.01
2023-01-11T06:44:06.379Z,65.05
2023-01-11T06:46:37.952Z,64.91
2023-01-11T06:49:09.747Z,64.77
2023-01-11T06:51:41.378Z,64.74
2023-01-11T06:54:12.949Z,64.60
2023-01-11T06:56:44.769Z,64.66
2023-01-11T06:59:16.801Z,64.57
2023-01-11T07:01:49.746Z,64.37
2023-01-11T07:04:22.173Z,64.10
2023-01-11T07:06:55.800Z,64.04
2023-01-11T07:09:28.380Z,64.01
2023-01-11T07:12:00.137Z,63.80
2023-01-11T07:14:31.657Z,63.66
2023-01-11T07:17:03.285Z,63.58
2023-01-11T07:19:34.753Z,63.73
2023-01-11T07:22:06.212Z,63.51
2023-01-11T07:24:37.865Z,63.19
2023-01-11T07:27:09.621Z,62.94
2023-01-11T07:29:41.475Z,62.97
2023-01-11T07:32:13.214Z,62.78
2023-01-11T07:34:45.250Z,62.70
2023-01-11T07:37:29.282Z,62.46
2023-01-11T07:40:02.265Z,62.06
2023-01-11T07:42:51.505Z,61.71
2023-01-11T07:45:27.075Z,61.58
2023-01-11T07:48:00.619Z,61.53
2023-01-11T07:50:32.207Z,61.14
2023-01-11T07:53:03.905Z,60.95
2023-01-11T07:55:35.413Z,60.86
2023-01-11T07:58:07.272Z,60.67
2023-01-11T08:00:40.842Z,60.36
2023-01-11T08:03:12.698Z,60.10
2023-01-11T08:05:44.628Z,59.90
2023-01-11T08:08:16.410Z,59.94
2023-01-11T08:11:08.187Z,59.65
2023-01-11T08:13:57.377Z,59.24
2023-01-11T08:16:28.941Z,58.78
2023-01-11T08:19:01.841Z,58.56
2023-01-11T08:21:33.461Z,58.17
2023-01-11T08:24:05.493Z,57.80
2023-01-11T08:26:36.955Z,57.36
2023-01-11T08:29:08.724Z,57.27
2023-01-11T08:31:40.493Z,56.80
2023-01-11T08:34:12.265Z,56.49
2023-01-11T08:36:44.154Z,56.31
2023-01-11T08:39:15.712Z,55.97
2023-01-11T08:41:47.504Z,55.96
2023-01-11T08:44:33.047Z,55.39
2023-01-11T08:47:05.509Z,54.16
2023-01-11T08:49:37.332Z,53.89
2023-01-11T08:52:10.518Z,53.06
2023-01-11T08:54:43.026Z,52.32
2023-01-11T08:57:14.875Z,51.98
2023-01-11T08:59:45.000Z,51.69
2023-01-11T09:02:16.632Z,50.83
2023-01-11T09:04:48.483Z,51.04
2023-01-11T09:07:20.635Z,51.26
2023-01-11T09:09:53.565Z,51.27
2023-01-11T09:12:25.497Z,51.33
2023-01-11T09:14:57.558Z,51.07
2023-01-11T09:17:29.135Z,51.08
2023-01-11T09:20:01.523Z,51.02
2023-01-11T09:22:33.938Z,50.80
2023-01-11T09:25:06.322Z,50.74
2023-01-11T09:27:38.160Z,50.48
2023-01-11T09:30:12.565Z,50.60
2023-01-11T09:32:44.528Z,50.90
2023-01-11T09:35:17.046Z,50.98
2023-01-11T09:37:56.301Z,50.98
2023-01-11T09:40:35.736Z,51.02
2023-01-11T09:43:09.004Z,51.08
2023-01-11T09:45:47.087Z,50.63
2023-01-11T09:48:29.262Z,50.24
2023-01-11T09:51:04.581Z,49.87
2023-01-11T09:53:38.771Z,49.60
2023-01-11T09:56:14.256Z,49.34
2023-01-11T09:58:55.990Z,49.40
2023-01-11T10:01:30.274Z,49.06
2023-01-11T10:04:24.408Z,48.66
2023-01-11T10:07:15.733Z,48.88
2023-01-11T10:18:22.128Z,48.24
2023-01-11T10:19:04.572Z,48.40
2023-01-11T10:21:37.407Z,48.37
2023-01-11T10:24:14.956Z,48.50
2023-01-11T10:26:46.438Z,48.48
2023-01-11T10:29:38.972Z,48.27
2023-01-11T10:32:34.923Z,48.00
2023-01-11T10:35:30.176Z,47.44
2023-01-11T10:38:25.915Z,47.22
2023-01-11T10:41:08.505Z,47.16
2023-01-11T10:43:41.429Z,46.93
2023-01-11T10:46:15.008Z,46.85
2023-01-11T10:48:47.232Z,46.98
2023-01-11T10:51:27.519Z,46.52
2023-01-11T10:54:12.552Z,46.35
2023-01-11T10:57:02.784Z,46.16
2023-01-11T10:59:56.638Z,46.13
2023-01-11T11:02:37.163Z,46.11
2023-01-11T11:05:19.219Z,45.72
2023-01-11T11:07:53.840Z,45.78
2023-01-11T11:10:28.362Z,45.57
2023-01-11T11:13:03.897Z,45.43
2023-01-11T11:15:38.112Z,45.50
2023-01-11T11:18:10.298Z,44.93
2023-01-11T11:20:44.716Z,44.62
2023-01-11T11:23:19.927Z,44.69
2023-01-11T11:25:53.165Z,44.33
2023-01-11T11:28:32.018Z,44.42
2023-01-11T11:31:04.703Z,44.17
2023-01-11T11:33:37.426Z,44.06
2023-01-11T11:36:10.269Z,43.39
2023-01-11T11:38:43.643Z,43.37
2023-01-11T11:41:17.370Z,43.58
2023-01-11T11:43:49.024Z,43.27
2023-01-11T11:46:25.822Z,43.20
2023-01-11T11:49:14.326Z,42.70
2023-01-11T11:51:46.076Z,42.23
2023-01-11T11:54:22.684Z,41.69
2023-01-11T11:56:54.475Z,41.49
2023-01-11T11:59:26.414Z,41.08
2023-01-11T12:02:03.615Z,41.51
2023-01-11T12:04:39.510Z,41.31
2023-01-11T12:07:15.104Z,41.47
2023-01-11T12:09:48.202Z,41.20
2023-01-11T12:12:21.996Z,40.75
2023-01-11T12:15:19.949Z,40.88
2023-01-11T12:17:51.497Z,40.52
2023-01-11T12:20:44.996Z,40.22
2023-01-11T12:23:21.907Z,39.82
2023-01-11T12:26:05.519Z,39.52
2023-01-11T12:28:54.873Z,39.41
2023-01-11T12:31:29.297Z,39.17
2023-01-11T12:34:03.432Z,39.53
2023-01-11T12:36:38.026Z,39.66
2023-01-11T12:39:11.415Z,39.41
2023-01-11T12:41:53.671Z,39.57
2023-01-11T12:44:43.066Z,39.25
2023-01-11T12:47:46.409Z,39.44
2023-01-11T12:50:21.721Z,39.38
2023-01-11T12:53:00.000Z,39.32
2023-01-11T12:55:37.496Z,39.12
2023-01-11T12:58:14.416Z,39.08
2023-01-11T13:01:14.119Z,39.38
2023-01-11T13:04:27.842Z,39.03
2023-01-11T13:07:06.343Z,39.42
2023-01-11T13:09:43.316Z,39.35
2023-01-11T13:12:19.073Z,39.12
2023-01-11T13:15:01.064Z,39.38
2023-01-11T13:17:38.080Z,39.50
2023-01-11T13:20:21.722Z,39.68
2023-01-11T13:22:54.098Z,39.87
2023-01-11T13:25:27.788Z,40.24
2023-01-11T13:28:00.952Z,40.54
2023-01-11T13:30:32.555Z,40.79
2023-01-11T13:33:05.924Z,40.77
2023-01-11T13:35:41.169Z,40.86
2023-01-11T13:38:17.021Z,41.19
2023-01-11T13:40:49.999Z,41.52
2023-01-11T13:43:24.156Z,42.04
2023-01-11T13:45:59.372Z,42.67
2023-01-11T13:48:33.326Z,43.07
2023-01-11T13:51:06.401Z,43.62
2023-01-11T13:53:40.707Z,44.14
2023-01-11T13:56:22.044Z,44.64
2023-01-11T13:58:57.269Z,45.36
2023-01-11T14:01:39.169Z,45.80
2023-01-11T14:04:13.151Z,46.64
2023-01-11T14:06:53.460Z,46.93
2023-01-11T14:09:33.740Z,47.43
2023-01-11T14:12:08.792Z,47.84
2023-01-11T14:15:09.574Z,48.35
2023-01-11T14:17:58.333Z,48.99
2023-01-11T14:20:33.931Z,49.55
2023-01-11T14:23:11.900Z,49.70
2023-01-11T14:26:02.211Z,50.22
2023-01-11T14:28:52.639Z,50.92
2023-01-11T14:31:36.657Z,51.20
2023-01-11T14:34:47.609Z,51.51
2023-01-11T14:37:36.062Z,51.82
2023-01-11T14:40:20.549Z,52.35
2023-01-11T14:43:07.429Z,52.52
2023-01-11T14:45:55.851Z,52.71
2023-01-11T14:48:34.501Z,53.52
2023-01-11T14:51:15.140Z,53.88
2023-01-11T14:53:48.215Z,53.96
2023-01-11T14:56:52.908Z,54.35
2023-01-11T14:59:33.606Z,54.99
2023-01-11T15:02:28.928Z,56.66
2023-01-11T15:05:14.471Z,57.28
2023-01-11T15:07:48.990Z,57.96
2023-01-11T15:10:42.095Z,58.38
2023-01-11T15:13:16.461Z,58.86
2023-01-11T15:16:05.664Z,59.21
2023-01-11T15:18:42.896Z,59.45
2023-01-11T15:21:17.937Z,59.78
2023-01-11T15:23:55.185Z,60.06
2023-01-11T15:26:28.717Z,60.03
2023-01-11T15:29:01.390Z,60.34
2023-01-11T15:31:36.862Z,60.91
2023-01-11T15:34:23.326Z,61.15
2023-01-11T15:37:11.480Z,61.41
2023-01-11T15:39:48.931Z,61.66
2023-01-11T15:42:43.462Z,61.93
2023-01-11T15:45:37.199Z,62.16
2023-01-11T15:48:21.614Z,62.38
2023-01-11T15:51:13.325Z,62.84
2023-01-11T15:54:11.890Z,62.81
2023-01-11T15:56:54.610Z,62.77
2023-01-11T16:00:00.460Z,62.34
2023-01-11T16:02:58.630Z,62.25
2023-01-11T16:05:30.673Z,62.20
2023-01-11T16:08:05.130Z,62.12
2023-01-11T16:11:00.047Z,62.41
2023-01-11T16:13:53.804Z,62.86
2023-01-11T16:16:27.228Z,62.87
2023-01-11T16:19:00.173Z,64.26
2023-01-11T16:21:35.755Z,64.49
2023-01-11T16:24:10.454Z,66.45
2023-01-11T16:26:42.608Z,66.16
2023-01-11T16:29:18.709Z,66.06
2023-01-11T16:31:58.048Z,66.14
2023-01-11T16:34:30.333Z,66.43
2023-01-11T16:37:01.983Z,66.63
2023-01-11T16:39:33.609Z,66.99
2023-01-11T16:42:06.311Z,67.77
2023-01-11T16:44:41.909Z,68.30
2023-01-11T16:47:17.669Z,68.47
2023-01-11T16:49:50.351Z,68.49
2023-01-11T16:52:39.171Z,68.55
2023-01-11T16:55:21.598Z,68.89
2023-01-11T16:57:56.022Z,69.59
2023-01-11T17:00:32.992Z,70.55
2023-01-11T17:03:07.114Z,70.87
2023-01-11T17:05:38.893Z,71.08
2023-01-11T17:08:26.717Z,71.02
2023-01-11T17:10:59.062Z,70.79
2023-01-11T17:13:53.787Z,70.68
2023-01-11T17:16:26.232Z,70.84
2023-01-11T17:18:58.425Z,71.46
2023-01-11T17:21:30.705Z,71.92
2023-01-11T17:24:04.242Z,73.04
2023-01-11T17:26:39.562Z,74.05
2023-01-11T17:29:12.802Z,73.74
2023-01-11T17:31:46.854Z,73.43
2023-01-11T17:34:25.021Z,73.02
2023-01-11T17:36:56.844Z,73.42
2023-01-11T17:39:31.305Z,73.36
2023-01-11T17:42:21.647Z,74.06
2023-01-11T17:45:10.995Z,74.72
2023-01-11T17:47:43.036Z,74.98
2023-01-11T17:50:24.722Z,74.71
2023-01-11T17:53:03.877Z,74.71
2023-01-11T17:55:36.319Z,74.93
2023-01-11T17:58:21.635Z,74.54
2023-01-11T18:01:19.492Z,74.54
2023-01-11T18:03:51.819Z,75.15
2023-01-11T18:06:27.512Z,75.81
2023-01-11T18:08:59.863Z,76.10
2023-01-11T18:11:32.633Z,75.78
2023-01-11T18:14:06.384Z,75.42
2023-01-11T18:16:38.154Z,75.47
2023-01-11T18:19:26.619Z,75.05
2023-01-11T18:21:58.549Z,75.24
2023-01-11T18:24:43.397Z,75.62
2023-01-11T18:27:32.640Z,75.52
2023-01-11T18:30:06.568Z,76.00
2023-01-11T18:32:44.988Z,76.69
2023-01-11T18:35:20.076Z,77.20
2023-01-11T18:37:51.986Z,77.89
2023-01-11T18:40:23.924Z,77.96
2023-01-11T18:42:56.456Z,77.46
2023-01-11T18:45:28.798Z,76.98
2023-01-11T18:48:00.445Z,77.25
2023-01-11T18:50:32.866Z,77.74
2023-01-11T18:53:04.326Z,78.47
2023-01-11T18:55:36.441Z,78.84
2023-01-11T18:58:10.018Z,79.30
2023-01-11T19:00:42.616Z,79.19
2023-01-11T19:05:46.813Z,79.20
2023-01-11T19:08:16.614Z,79.10
2023-01-11T19:10:49.416Z,79.09
2023-01-11T19:13:21.385Z,79.32
2023-01-11T19:15:53.332Z,79.88
2023-01-11T19:18:25.020Z,80.51
2023-01-11T19:20:56.673Z,80.60
2023-01-11T19:23:28.200Z,80.73
2023-01-11T19:26:01.664Z,80.75
2023-01-11T19:28:33.508Z,80.86
2023-01-11T19:31:09.127Z,80.36
2023-01-11T19:33:42.061Z,80.17
2023-01-11T19:36:14.143Z,80.69
2023-01-11T19:38:45.732Z,81.45
2023-01-11T19:41:17.397Z,82.75
2023-01-11T19:43:49.233Z,82.98
2023-01-11T19:46:31.296Z,83.13
2023-01-11T19:49:04.024Z,82.88
2023-01-11T19:51:35.880Z,82.80
2023-01-11T19:54:08.111Z,82.53
2023-01-11T19:56:39.897Z,82.51
2023-01-11T19:59:11.374Z,83.14
2023-01-11T20:01:41.650Z,83.93
2023-01-11T20:04:13.939Z,84.25
2023-01-11T20:06:50.868Z,84.40
2023-01-11T20:09:23.009Z,84.06
2023-01-11T20:11:55.665Z,83.70
2023-01-11T20:14:27.299Z,84.03
2023-01-11T20:16:59.207Z,84.66
2023-01-11T20:19:31.089Z,85.55
2023-01-11T20:22:02.962Z,86.24
2023-01-11T20:24:34.450Z,86.56
2023-01-11T20:27:04.252Z,86.45
2023-01-11T20:29:36.211Z,86.14
2023-01-11T20:32:31.222Z,86.01
2023-01-11T20:35:00.182Z,85.72
2023-01-11T20:37:33.185Z,85.99
2023-01-11T20:40:05.757Z,86.17
2023-01-11T20:42:37.318Z,86.80
2023-01-11T20:45:08.558Z,87.32
2023-01-11T20:47:40.061Z,87.53
2023-01-11T20:50:13.225Z,87.44
2023-01-11T20:52:45.022Z,87.44
2023-01-11T20:55:16.595Z,86.96
2023-01-11T20:57:51.551Z,87.20
2023-01-11T21:00:24.862Z,87.54
2023-01-11T21:02:56.965Z,87.99
2023-01-11T21:05:28.713Z,88.27
2023-01-11T21:08:00.212Z,88.45
2023-01-11T21:10:30.057Z,88.38
2023-01-11T21:13:02.904Z,87.88
2023-01-11T21:15:34.589Z,87.22
2023-01-11T21:18:07.286Z,86.92
2023-01-11T21:20:38.845Z,87.36
2023-01-11T21:23:15.437Z,87.92
2023-01-11T21:25:47.079Z,88.33
2023-01-11T21:28:18.837Z,88.47
2023-01-11T21:30:50.283Z,88.14
2023-01-11T21:33:20.013Z,87.69
2023-01-11T21:35:51.627Z,87.71
2023-01-11T21:38:23.313Z,87.53
2023-01-11T21:40:55.071Z,87.54
2023-01-11T21:43:26.643Z,87.76
2023-01-11T21:45:58.768Z,88.62
2023-01-11T21:48:32.063Z,89.32
2023-01-11T21:51:04.530Z,90.36
2023-01-11T21:53:36.237Z,90.68
2023-01-11T21:56:06.838Z,90.95
2023-01-11T21:58:38.581Z,91.25
2023-01-11T22:01:14.220Z,91.41
2023-01-11T22:03:46.535Z,91.57
2023-01-11T22:06:20.302Z,92.09
2023-01-11T22:08:51.818Z,92.51
2023-01-11T22:11:21.548Z,92.24
2023-01-11T22:13:53.519Z,91.70
2023-01-11T22:16:24.967Z,91.15
2023-01-11T22:18:55.016Z,90.35
2023-01-11T22:21:27.272Z,89.57
2023-01-11T22:24:00.169Z,89.09
2023-01-11T22:26:33.967Z,89.50
2023-01-11T22:29:18.639Z,89.50
2023-01-11T22:31:52.758Z,88.99
2023-01-11T22:34:24.633Z,88.47
2023-01-11T22:36:56.035Z,88.24
2023-01-11T22:39:25.864Z,87.66
2023-01-11T22:41:57.521Z,87.29
2023-01-11T22:44:29.287Z,87.96
2023-01-11T22:47:01.017Z,88.35
2023-01-11T22:49:32.769Z,88.24
2023-01-11T22:52:04.418Z,87.76
2023-01-11T22:54:35.983Z,87.40
2023-01-11T22:57:06.192Z,87.04
2023-01-11T22:59:37.912Z,86.38
2023-01-11T23:02:09.467Z,85.89
2023-01-11T23:04:41.182Z,86.14
2023-01-11T23:07:12.712Z,87.56
2023-01-11T23:09:44.950Z,88.43
2023-01-11T23:12:34.037Z,88.78
2023-01-11T23:15:06.521Z,88.95
2023-01-11T23:17:38.357Z,88.60
2023-01-11T23:20:12.625Z,88.21
2023-01-11T23:22:44.713Z,88.29
2023-01-11T23:25:16.295Z,89.18
2023-01-11T23:27:47.751Z,90.18
2023-01-11T23:30:19.207Z,91.17
2023-01-11T23:32:51.014Z,91.14
2023-01-11T23:35:22.890Z,90.50
2023-01-11T23:37:56.665Z,90.00
2023-01-11T23:40:28.185Z,89.72
2023-01-11T23:43:00.313Z,89.59
2023-01-11T23:45:32.109Z,89.81
2023-01-11T23:48:04.658Z,90.19
2023-01-11T23:50:36.648Z,90.46
2023-01-11T23:53:08.396Z,90.29
2023-01-11T23:55:40.382Z,89.89
2023-01-11T23:58:12.169Z,89.41
